Dhaka/Tezgaon, Bangladesh
Current Conditions -  °F | °C
As of 8:50 AM on Monday 24 Nov 2014 (Local Time) from VGHS Reporting Station
Haze Haze  
Wind Chill: 70°   Ceiling: Unl
Heat Index: 70°   Visibility: 0.93mi
Dew Point: 63°   Wind: 0mph
Humidity: 78%   Direction: NA
Pressure: 29.94"   Gusts: NA
Location:  23.45°N, 90.22°E
Report Text: VGHS 240250Z 00000KT 1500 BR NSC 21/17 Q1014 BECMG S/VIS 2000M
Loading
Personal Weather Stations






























Interactive Weather Map New forecast layout! Learn more

10-Day Weather Forecast

Advertisements
Track Severe Weather on mobile